createdAt,value
2023-03-17T00:01:54.829Z,98918.88
2023-03-17T00:04:26.598Z,98919.44
2023-03-17T00:06:54.448Z,98920.59
2023-03-17T00:09:22.250Z,98925.22
2023-03-17T00:11:49.995Z,98917.19
2023-03-17T00:14:16.964Z,98912.06
2023-03-17T00:16:51.199Z,98907.34
2023-03-17T00:19:24.192Z,98903.31
2023-03-17T00:21:50.870Z,98899.16
2023-03-17T00:24:17.522Z,98900.78
2023-03-17T00:26:44.476Z,98897.28
2023-03-17T00:29:11.100Z,98901.13
2023-03-17T00:31:39.443Z,98895.00
2023-03-17T00:34:06.569Z,98890.44
2023-03-17T00:36:34.415Z,98895.25
2023-03-17T00:39:03.687Z,98890.94
2023-03-17T00:41:30.494Z,98889.34
2023-03-17T00:43:57.318Z,98892.00
2023-03-17T00:46:36.080Z,98888.97
2023-03-17T00:49:20.208Z,98881.88
2023-03-17T00:51:47.350Z,98871.09
2023-03-17T00:54:16.293Z,98866.28
2023-03-17T00:56:44.290Z,98862.41
2023-03-17T00:59:20.794Z,98858.38
2023-03-17T01:01:48.920Z,98854.84
2023-03-17T01:04:15.814Z,98852.31
2023-03-17T01:06:43.204Z,98857.47
2023-03-17T01:09:14.722Z,98854.78
2023-03-17T01:11:42.677Z,98851.81
2023-03-17T01:14:10.651Z,98836.91
2023-03-17T01:16:37.535Z,98840.97
2023-03-17T01:19:04.656Z,98841.47
2023-03-17T01:21:31.411Z,98840.63
2023-03-17T01:23:58.624Z,98840.75
2023-03-17T01:26:26.141Z,98842.94
2023-03-17T01:28:52.805Z,98842.78
2023-03-17T01:31:20.487Z,98850.50
2023-03-17T01:33:47.399Z,98841.56
2023-03-17T01:36:14.160Z,98844.28
2023-03-17T01:38:40.899Z,98838.63
2023-03-17T01:41:07.546Z,98831.28
2023-03-17T01:43:34.177Z,98828.03
2023-03-17T01:46:13.011Z,98820.84
2023-03-17T01:49:24.950Z,98819.63
2023-03-17T01:51:57.681Z,98820.97
2023-03-17T01:54:55.709Z,98809.28
2023-03-17T01:57:56.392Z,98810.59
2023-03-17T02:00:26.574Z,98808.38
2023-03-17T02:02:57.126Z,98800.75
2023-03-17T02:05:29.950Z,98806.31
2023-03-17T02:07:56.916Z,98807.41
2023-03-17T02:10:29.755Z,98798.53
2023-03-17T02:13:01.603Z,98797.28
2023-03-17T02:15:46.230Z,98794.94
2023-03-17T02:18:13.600Z,98784.56
2023-03-17T02:20:40.116Z,98799.25
2023-03-17T02:23:08.948Z,98792.34
2023-03-17T02:25:36.739Z,98783.81
2023-03-17T02:28:15.071Z,98774.53
2023-03-17T02:30:43.230Z,98777.75
2023-03-17T02:33:11.872Z,98774.69
2023-03-17T02:35:40.851Z,98768.66
2023-03-17T02:38:08.277Z,98765.72
2023-03-17T02:40:34.826Z,98762.75
2023-03-17T02:43:02.495Z,98760.13
2023-03-17T02:45:29.150Z,98750.03
2023-03-17T02:47:57.180Z,98749.31
2023-03-17T02:50:27.850Z,98753.19
2023-03-17T02:52:54.909Z,98756.41
2023-03-17T02:55:21.602Z,98752.38
2023-03-17T02:57:48.651Z,98744.66
2023-03-17T03:00:15.523Z,98741.69
2023-03-17T03:02:42.495Z,98752.09
2023-03-17T03:05:10.741Z,98757.22
2023-03-17T03:07:37.434Z,98766.66
2023-03-17T03:10:05.470Z,98756.69
2023-03-17T03:12:33.471Z,98750.78
2023-03-17T03:15:00.697Z,98753.25
2023-03-17T03:17:27.284Z,98745.75
2023-03-17T03:19:53.948Z,98744.88
2023-03-17T03:22:20.561Z,98747.94
2023-03-17T03:24:47.082Z,98751.03
2023-03-17T03:27:13.755Z,98761.88
2023-03-17T03:29:41.692Z,98763.38
2023-03-17T03:32:09.034Z,98768.09
2023-03-17T03:34:35.650Z,98761.84
2023-03-17T03:37:02.212Z,98763.81
2023-03-17T03:39:28.742Z,98760.50
2023-03-17T03:41:58.335Z,98760.75
2023-03-17T03:44:25.550Z,98754.38
2023-03-17T03:46:52.557Z,98750.75
2023-03-17T03:49:19.237Z,98748.50
2023-03-17T03:51:46.047Z,98744.06
2023-03-17T03:54:12.592Z,98745.09
2023-03-17T03:56:39.175Z,98750.16
2023-03-17T03:59:06.197Z,98748.69
2023-03-17T04:01:32.891Z,98751.56
2023-03-17T04:03:59.474Z,98743.75
2023-03-17T04:06:26.322Z,98741.78
2023-03-17T04:08:53.058Z,98745.44
2023-03-17T04:11:19.905Z,98744.81
2023-03-17T04:13:46.443Z,98743.63
2023-03-17T04:16:13.199Z,98744.28
2023-03-17T04:18:39.930Z,98747.09
2023-03-17T04:21:08.275Z,98740.22
2023-03-17T04:23:34.835Z,98726.41
2023-03-17T04:26:01.532Z,98726.31
2023-03-17T04:28:28.103Z,98718.59
2023-03-17T04:30:54.917Z,98723.91
2023-03-17T04:33:21.568Z,98719.75
2023-03-17T04:35:48.228Z,98717.19
2023-03-17T04:38:14.814Z,98710.78
2023-03-17T04:40:41.536Z,98716.09
2023-03-17T04:43:09.068Z,98716.25
2023-03-17T04:45:37.190Z,98715.47
2023-03-17T04:48:04.228Z,98721.66
2023-03-17T04:50:33.330Z,98723.63
2023-03-17T04:53:00.296Z,98726.47
2023-03-17T04:55:27.542Z,98728.50
2023-03-17T04:57:54.166Z,98727.00
2023-03-17T05:00:21.551Z,98721.50
2023-03-17T05:02:48.204Z,98712.09
2023-03-17T05:05:14.965Z,98711.78
2023-03-17T05:07:42.011Z,98713.97
2023-03-17T05:10:09.373Z,98716.25
2023-03-17T05:12:36.112Z,98725.03
2023-03-17T05:15:02.921Z,98723.34
2023-03-17T05:17:29.646Z,98719.63
2023-03-17T05:19:56.399Z,98721.69
2023-03-17T05:22:23.457Z,98712.75
2023-03-17T05:24:50.992Z,98701.75
2023-03-17T05:27:17.640Z,98701.25
2023-03-17T05:29:44.220Z,98710.84
2023-03-17T05:32:10.747Z,98712.19
2023-03-17T05:34:37.313Z,98722.72
2023-03-17T05:37:03.856Z,98729.66
2023-03-17T05:39:30.843Z,98728.66
2023-03-17T05:41:57.817Z,98731.94
2023-03-17T05:44:24.783Z,98727.41
2023-03-17T05:46:51.680Z,98727.72
2023-03-17T05:49:19.179Z,98737.25
2023-03-17T05:51:46.480Z,98743.06
2023-03-17T05:54:13.798Z,98748.47
2023-03-17T05:56:40.471Z,98748.19
2023-03-17T05:59:07.020Z,98739.47
2023-03-17T06:01:33.617Z,98746.53
2023-03-17T06:04:01.652Z,98742.06
2023-03-17T06:06:28.843Z,98759.09
2023-03-17T06:08:55.500Z,98754.34
2023-03-17T06:11:22.090Z,98750.81
2023-03-17T06:13:48.988Z,98748.97
2023-03-17T06:16:16.026Z,98756.47
2023-03-17T06:18:43.047Z,98755.22
2023-03-17T06:21:10.457Z,98763.34
2023-03-17T06:23:37.236Z,98763.81
2023-03-17T06:26:04.400Z,98760.09
2023-03-17T06:28:31.240Z,98757.41
2023-03-17T06:30:58.717Z,98752.31
2023-03-17T06:33:26.052Z,98764.13
2023-03-17T06:35:52.715Z,98763.16
2023-03-17T06:38:20.799Z,98767.34
2023-03-17T06:40:47.924Z,98756.94
2023-03-17T06:43:14.776Z,98755.59
2023-03-17T06:45:41.695Z,98767.59
2023-03-17T06:48:08.409Z,98764.91
2023-03-17T06:50:35.363Z,98759.44
2023-03-17T06:53:01.978Z,98759.09
2023-03-17T06:55:29.093Z,98763.41
2023-03-17T06:57:56.231Z,98757.00
2023-03-17T11:31:54.724Z,98628.31
2023-03-17T11:34:36.440Z,98618.28
2023-03-17T11:37:44.389Z,98613.94
2023-03-17T11:40:19.649Z,98615.34
2023-03-17T11:43:33.569Z,98608.16
2023-03-17T11:46:13.271Z,98600.66
2023-03-17T11:49:00.756Z,98604.03
2023-03-17T11:51:56.654Z,98601.72
2023-03-17T11:54:42.120Z,98607.56
2023-03-17T11:57:27.138Z,98601.38
2023-03-17T12:00:03.371Z,98599.88
2023-03-17T12:02:47.613Z,98588.50
2023-03-17T12:05:24.144Z,98588.19
2023-03-17T12:08:07.801Z,98580.59
2023-03-17T12:10:41.930Z,98581.34
2023-03-17T12:13:15.675Z,98584.69
2023-03-17T12:15:52.981Z,98582.69
2023-03-17T12:18:26.486Z,98578.53
2023-03-17T12:21:24.132Z,98576.34
2023-03-17T12:24:02.337Z,98568.09
2023-03-17T12:26:35.310Z,98561.44
2023-03-17T12:29:24.759Z,98552.03
2023-03-17T12:32:05.515Z,98551.34
2023-03-17T12:34:51.157Z,98554.09
2023-03-17T12:37:18.718Z,98547.88
2023-03-17T12:39:55.945Z,98542.44
2023-03-17T12:42:53.614Z,98541.25
2023-03-17T12:45:54.452Z,98551.03
2023-03-17T12:48:43.418Z,98542.63
2023-03-17T12:51:44.654Z,98531.47
2023-03-17T12:54:33.399Z,98524.47
2023-03-17T12:57:13.043Z,98524.75
2023-03-17T12:59:43.985Z,98532.94
2023-03-17T13:02:28.975Z,98525.28
2023-03-17T13:05:00.945Z,98534.22
2023-03-17T13:07:52.670Z,98531.53
2023-03-17T13:10:19.174Z,98535.09
2023-03-17T13:12:48.749Z,98531.94
2023-03-17T13:15:21.568Z,98529.00
2023-03-17T13:17:48.236Z,98531.97
2023-03-17T13:20:20.637Z,98523.16
2023-03-17T13:23:17.533Z,98519.19
2023-03-17T13:25:53.426Z,98514.88
2023-03-17T13:28:34.875Z,98513.81
2023-03-17T13:31:13.797Z,98515.31
2023-03-17T13:33:44.618Z,98512.09
2023-03-17T13:36:19.346Z,98504.81
2023-03-17T13:39:19.173Z,98496.91
2023-03-17T13:42:05.575Z,98504.53
2023-03-17T13:45:08.169Z,98505.47
2023-03-17T13:47:38.309Z,98496.69
2023-03-17T13:50:12.539Z,98494.34
2023-03-17T13:52:48.429Z,98496.91
2023-03-17T13:55:17.954Z,98488.13
2023-03-17T13:58:08.684Z,98489.31
2023-03-17T14:00:43.611Z,98486.78
2023-03-17T14:03:15.888Z,98482.19
2023-03-17T14:05:46.377Z,98481.03
2023-03-17T14:08:18.380Z,98480.09
2023-03-17T14:10:53.624Z,98482.81
2023-03-17T14:13:24.334Z,98478.53
2023-03-17T14:15:57.042Z,98482.25
2023-03-17T14:18:32.766Z,98475.28
2023-03-17T14:21:02.702Z,98475.38
2023-03-17T14:23:29.908Z,98486.31
2023-03-17T14:25:58.649Z,98474.72
2023-03-17T14:28:28.487Z,98473.31
2023-03-17T14:31:01.091Z,98473.31
2023-03-17T14:33:34.536Z,98472.56
2023-03-17T14:36:03.138Z,98477.69
2023-03-17T14:38:35.723Z,98474.91
2023-03-17T14:41:23.913Z,98467.06
2023-03-17T14:43:56.115Z,98468.94
2023-03-17T14:46:37.903Z,98463.19
2023-03-17T14:49:24.770Z,98466.63
2023-03-17T14:51:57.306Z,98466.69
2023-03-17T14:54:31.711Z,98470.69
2023-03-17T14:57:06.486Z,98461.34
2023-03-17T14:59:40.746Z,98460.31
2023-03-17T15:02:16.531Z,98458.16
2023-03-17T15:04:53.673Z,98465.38
2023-03-17T15:07:40.455Z,98474.22
2023-03-17T15:10:15.801Z,98464.28
2023-03-17T15:12:43.051Z,98461.31
2023-03-17T15:15:26.384Z,98456.81
2023-03-17T15:17:59.340Z,98449.66
2023-03-17T15:20:33.784Z,98448.91
2023-03-17T15:23:25.063Z,98442.81
2023-03-17T15:25:56.797Z,98446.25
2023-03-17T15:28:28.252Z,98446.13
2023-03-17T15:31:08.746Z,98441.16
2023-03-17T15:33:45.689Z,98445.41
2023-03-17T15:36:31.407Z,98446.91
2023-03-17T15:38:59.331Z,98451.84
2023-03-17T15:41:26.145Z,98436.59
2023-03-17T15:43:53.587Z,98437.31
2023-03-17T15:46:31.121Z,98441.50
2023-03-17T15:48:58.137Z,98436.63
2023-03-17T15:51:24.788Z,98435.31
2023-03-17T15:53:51.470Z,98431.97
2023-03-17T15:56:20.975Z,98434.84
2023-03-17T15:58:49.321Z,98435.59
2023-03-17T16:01:16.658Z,98427.56
2023-03-17T16:03:45.452Z,98432.94
2023-03-17T16:08:42.853Z,98433.47
2023-03-17T16:11:15.189Z,98418.84
2023-03-17T16:13:41.910Z,98419.38
2023-03-17T16:16:17.063Z,98419.78
2023-03-17T16:18:44.050Z,98417.00
2023-03-17T16:21:11.582Z,98411.53
2023-03-17T16:23:38.118Z,98410.09
2023-03-17T16:26:15.044Z,98410.75
2023-03-17T16:28:44.738Z,98409.03
2023-03-17T16:31:25.472Z,98408.06
2023-03-17T16:33:53.584Z,98415.88
2023-03-17T16:36:21.792Z,98407.22
2023-03-17T16:38:49.791Z,98412.44
2023-03-17T16:41:27.354Z,98415.88
2023-03-17T16:44:01.220Z,98414.41
2023-03-17T16:46:34.056Z,98413.09
2023-03-17T16:49:01.837Z,98423.59
2023-03-17T16:51:28.404Z,98421.00
2023-03-17T16:53:55.176Z,98414.69
2023-03-17T16:56:25.099Z,98421.97
2023-03-17T16:58:51.692Z,98428.75
2023-03-17T17:01:21.877Z,98426.19
2023-03-17T17:03:48.792Z,98427.44
2023-03-17T17:06:15.859Z,98435.31
2023-03-17T17:08:49.004Z,98430.72
2023-03-17T17:11:17.961Z,98432.59
2023-03-17T17:13:46.344Z,98435.09
2023-03-17T17:16:27.704Z,98440.66
2023-03-17T17:18:54.858Z,98441.97
2023-03-17T17:21:21.408Z,98453.75
2023-03-17T17:23:47.977Z,98451.63
2023-03-17T17:26:14.900Z,98442.81
2023-03-17T17:28:41.493Z,98452.41
2023-03-17T17:31:09.119Z,98455.34
2023-03-17T17:33:36.676Z,98461.34
2023-03-17T17:36:11.590Z,98458.66
2023-03-17T17:38:38.254Z,98462.44
2023-03-17T17:41:08.920Z,98463.41
2023-03-17T17:43:35.586Z,98466.28
2023-03-17T17:46:02.151Z,98470.25
2023-03-17T17:48:29.201Z,98469.84
2023-03-17T17:50:56.848Z,98468.16
2023-03-17T17:53:24.190Z,98470.97
2023-03-17T17:55:51.807Z,98470.03
2023-03-17T17:58:21.590Z,98475.25
2023-03-17T18:00:48.820Z,98481.44
2023-03-17T18:03:15.549Z,98480.59
2023-03-17T18:05:42.161Z,98474.06
2023-03-17T18:08:08.695Z,98483.84
2023-03-17T18:10:35.332Z,98479.41
2023-03-17T18:13:01.912Z,98479.16
2023-03-17T18:15:28.985Z,98483.81
2023-03-17T18:17:56.401Z,98485.53
2023-03-17T18:20:24.036Z,98486.56
2023-03-17T18:22:51.576Z,98487.38
2023-03-17T18:25:19.508Z,98483.06
2023-03-17T18:27:58.008Z,98481.44
2023-03-17T18:30:28.366Z,98482.03
2023-03-17T18:32:58.331Z,98479.91
2023-03-17T18:35:27.888Z,98474.75
2023-03-17T18:37:57.305Z,98473.72
2023-03-17T18:40:25.071Z,98476.09
2023-03-17T18:42:51.590Z,98481.09
2023-03-17T18:45:18.332Z,98475.16
2023-03-17T18:47:45.290Z,98475.00
2023-03-17T18:50:13.672Z,98468.28
2023-03-17T18:52:42.018Z,98465.06
2023-03-17T18:55:11.108Z,98472.78
2023-03-17T18:57:38.295Z,98477.63
2023-03-17T19:00:08.635Z,98477.09
2023-03-17T19:02:35.781Z,98478.63
2023-03-17T19:05:02.445Z,98471.97
2023-03-17T19:07:29.405Z,98473.03
2023-03-17T19:09:56.108Z,98479.03
2023-03-17T19:12:24.464Z,98476.78
2023-03-17T19:14:52.196Z,98475.06
2023-03-17T19:17:18.876Z,98478.09
2023-03-17T19:19:45.580Z,98469.38
2023-03-17T19:22:12.244Z,98475.16
2023-03-17T19:24:38.977Z,98472.44
2023-03-17T19:27:05.702Z,98480.25
2023-03-17T19:29:33.499Z,98485.09
2023-03-17T19:32:00.517Z,98488.72
2023-03-17T19:34:30.102Z,98486.09
2023-03-17T19:36:57.054Z,98486.94
2023-03-17T19:39:23.831Z,98493.28
2023-03-17T19:41:54.953Z,98491.44
2023-03-17T19:44:22.328Z,98489.13
2023-03-17T19:46:49.463Z,98487.41
2023-03-17T19:49:16.515Z,98491.13
2023-03-17T19:51:43.800Z,98493.41
2023-03-17T19:54:11.152Z,98497.03
2023-03-17T19:56:38.650Z,98486.63
2023-03-17T19:59:06.611Z,98490.19
2023-03-17T20:01:34.125Z,98495.22
2023-03-17T20:04:01.131Z,98498.38
2023-03-17T20:06:28.097Z,98499.88
2023-03-17T20:08:54.669Z,98499.78
2023-03-17T20:11:21.692Z,98505.13
2023-03-17T20:13:48.335Z,98516.56
2023-03-17T20:16:16.467Z,98510.69
2023-03-17T20:18:43.027Z,98505.72
2023-03-17T20:21:13.751Z,98518.25
2023-03-17T20:23:40.317Z,98515.16
2023-03-17T20:26:07.492Z,98516.59
2023-03-17T20:28:34.347Z,98518.75
2023-03-17T20:31:03.176Z,98521.50
2023-03-17T20:33:31.706Z,98518.31
2023-03-17T20:35:58.319Z,98523.63
2023-03-17T20:38:25.597Z,98515.00
2023-03-17T20:40:52.536Z,98523.63
2023-03-17T20:43:19.362Z,98519.94
2023-03-17T20:45:45.918Z,98522.63
2023-03-17T20:48:13.298Z,98519.63
2023-03-17T20:50:40.944Z,98524.19
2023-03-17T20:53:07.523Z,98526.44
2023-03-17T20:55:34.171Z,98531.13
2023-03-17T20:58:01.724Z,98540.16
2023-03-17T21:00:30.234Z,98537.53
2023-03-17T21:02:57.092Z,98536.59
2023-03-17T21:05:26.449Z,98543.38
2023-03-17T21:07:53.351Z,98542.50
2023-03-17T21:10:20.644Z,98547.31
2023-03-17T21:12:48.135Z,98546.00
2023-03-17T21:15:15.240Z,98551.59
2023-03-17T21:17:42.407Z,98545.41
2023-03-17T21:20:12.261Z,98536.97
2023-03-17T21:22:39.916Z,98538.97
2023-03-17T21:25:08.654Z,98545.22
2023-03-17T21:27:37.657Z,98541.44
2023-03-17T21:30:09.722Z,98537.28
2023-03-17T21:32:36.463Z,98534.50
2023-03-17T21:35:03.817Z,98532.59
2023-03-17T21:37:30.457Z,98532.47
2023-03-17T21:39:57.055Z,98537.06
2023-03-17T21:42:24.704Z,98540.69
2023-03-17T21:44:52.232Z,98530.97
2023-03-17T21:47:19.588Z,98530.56
2023-03-17T21:49:46.887Z,98525.44
2023-03-17T21:52:14.948Z,98528.50
2023-03-17T21:54:41.855Z,98525.66
2023-03-17T21:57:08.570Z,98520.94
2023-03-17T21:59:35.680Z,98517.53
2023-03-17T22:02:02.818Z,98515.13
2023-03-17T22:04:30.084Z,98515.25
2023-03-17T22:06:58.704Z,98521.94
2023-03-17T22:09:25.994Z,98512.34
2023-03-17T22:11:52.586Z,98520.84
2023-03-17T22:14:20.558Z,98513.03
2023-03-17T22:16:48.804Z,98515.59
2023-03-17T22:19:16.918Z,98508.38
2023-03-17T22:21:44.346Z,98507.88
2023-03-17T23:03:58.282Z,98535.31
2023-03-17T23:06:25.776Z,98535.84
2023-03-17T23:08:52.424Z,98538.28
2023-03-17T23:11:25.102Z,98544.41
2023-03-17T23:13:52.599Z,98544.00
2023-03-17T23:16:20.265Z,98537.09
2023-03-17T23:18:47.193Z,98539.88
2023-03-17T23:21:32.430Z,98544.41
2023-03-17T23:23:59.980Z,98553.25
2023-03-17T23:26:27.972Z,98552.38
2023-03-17T23:28:54.699Z,98553.88
2023-03-17T23:31:22.494Z,98561.63
2023-03-17T23:33:50.411Z,98559.06
2023-03-17T23:36:17.476Z,98570.72
2023-03-17T23:38:45.500Z,98575.94
2023-03-17T23:41:13.372Z,98573.44
2023-03-17T23:43:40.506Z,98579.88
2023-03-17T23:46:07.200Z,98578.81
2023-03-17T23:48:33.925Z,98579.81
2023-03-17T23:51:01.079Z,98585.56
2023-03-17T23:53:28.322Z,98590.56
2023-03-17T23:55:55.203Z,98587.50
2023-03-17T23:58:22.784Z,98600.25
